PWSweather.com
Personal Weather Stations
Station Observations
KMIEASTT1
Tawas Bay, East Tawas, MI 48730

Tawas BayEast Tawas, MI 48730

Lat: 44.28, Lon: -83.48

Elevation: 600

Station Type: Davis VantagePro

http://www.tawasbayweather.com

High Low Average
Temperature 35.7°F2.1°C 26.7°F-2.9°C 31.4°F-0.3°C
Dew Point 32.2°F0.1°C 23.0°F-5.0°C 26.7°F-2.9°C
Winds 8.0 mph 12.9 kmh Calm Calm 3.0 mph WSW4.8 kmh WSW
Wind Gusts 10.0 mph16.1 kmh -- 4.0 mph6.4 kmh
Humidity 90% 74% 83%
Pressure 29.68 in1005.1 mb 29.43 in996.6 mb -
Precipitation 0.00 in0.0 mm - -
Hour Temp Dew Point Humidity Winds Wind Gusts Pressure Precip Precip Rate Daily Precip Total
12:02 AM 30.1°F-1.1°C 23.8°F-4.6°C 77% Calm Calm -- 29.43 in996.6 mb 0.00 in0.0 mm 0.00 in/hr0.0 mm/hr 0.00 in0.0 mm
12:16 AM 30.5°F-0.8°C 25.1°F-3.8°C 80% Calm Calm -- 29.43 in996.6 mb 0.00 in0.0 mm 0.00 in/hr0.0 mm/hr 0.00 in0.0 mm
12:31 AM 31.2°F-0.4°C 25.8°F-3.4°C 80% Calm Calm -- 29.43 in996.6 mb 0.00 in0.0 mm 0.00 in/hr0.0 mm/hr 0.00 in0.0 mm
12:47 AM 31.7°F-0.2°C 24.7°F-4.1°C 75% Calm Calm -- 29.43 in996.6 mb 0.00 in0.0 mm 0.00 in/hr0.0 mm/hr 0.00 in0.0 mm
01:02 AM 32.2°F0.1°C 24.9°F-3.9°C 74% Calm Calm -- 29.43 in996.6 mb 0.00 in0.0 mm 0.00 in/hr0.0 mm/hr 0.00 in0.0 mm
01:16 AM 31.8°F-0.1°C 25.1°F-3.8°C 76% Calm Calm -- 29.44 in997.0 mb 0.00 in0.0 mm 0.00 in/hr0.0 mm/hr 0.00 in0.0 mm
01:31 AM 31.2°F-0.4°C 25.5°F-3.6°C 79% 1.0 mph NW1.6 kmh NW 1.0 mph1.6 kmh 29.44 in997.0 mb 0.00 in0.0 mm 0.00 in/hr0.0 mm/hr 0.00 in0.0 mm
01:45 AM 31.1°F-0.5°C 25.4°F-3.7°C 79% Calm Calm 1.0 mph1.6 kmh 29.44 in997.0 mb 0.00 in0.0 mm 0.00 in/hr0.0 mm/hr 0.00 in0.0 mm
02:02 AM 30.4°F-0.9°C 25.0°F-3.9°C 80% 1.0 mph NW1.6 kmh NW 2.0 mph3.2 kmh 29.45 in997.3 mb 0.00 in0.0 mm 0.00 in/hr0.0 mm/hr 0.00 in0.0 mm
02:16 AM 30.5°F-0.8°C 24.5°F-4.2°C 78% 1.0 mph NW1.6 kmh NW 2.0 mph3.2 kmh 29.45 in997.3 mb 0.00 in0.0 mm 0.00 in/hr0.0 mm/hr 0.00 in0.0 mm
02:31 AM 30.2°F-1.0°C 24.2°F-4.3°C 78% 1.0 mph NW1.6 kmh NW 2.0 mph3.2 kmh 29.45 in997.3 mb 0.00 in0.0 mm 0.00 in/hr0.0 mm/hr 0.00 in0.0 mm
02:46 AM 29.9°F-1.2°C 23.9°F-4.5°C 78% 1.0 mph NW1.6 kmh NW 2.0 mph3.2 kmh 29.45 in997.3 mb 0.00 in0.0 mm 0.00 in/hr0.0 mm/hr 0.00 in0.0 mm
03:02 AM 29.7°F-1.3°C 23.7°F-4.6°C 78% Calm Calm 2.0 mph3.2 kmh 29.46 in997.6 mb 0.00 in0.0 mm 0.00 in/hr0.0 mm/hr 0.00 in0.0 mm
03:15 AM 29.7°F-1.3°C 23.7°F-4.6°C 78% 2.0 mph WNW3.2 kmh WNW 4.0 mph6.4 kmh 29.46 in997.6 mb 0.00 in0.0 mm 0.00 in/hr0.0 mm/hr 0.00 in0.0 mm
03:31 AM 29.6°F-1.3°C 23.9°F-4.5°C 79% 3.0 mph WNW4.8 kmh WNW 5.0 mph8.0 kmh 29.47 in998.0 mb 0.00 in0.0 mm 0.00 in/hr0.0 mm/hr 0.00 in0.0 mm
03:46 AM 29.3°F-1.5°C 23.6°F-4.7°C 79% 3.0 mph NW4.8 kmh NW 5.0 mph8.0 kmh 29.47 in998.0 mb 0.00 in0.0 mm 0.00 in/hr0.0 mm/hr 0.00 in0.0 mm
04:02 AM 28.9°F-1.7°C 23.5°F-4.7°C 80% 2.0 mph NW3.2 kmh NW 4.0 mph6.4 kmh 29.48 in998.3 mb 0.00 in0.0 mm 0.00 in/hr0.0 mm/hr 0.00 in0.0 mm
04:15 AM 28.6°F-1.9°C 23.5°F-4.7°C 81% 2.0 mph WNW3.2 kmh WNW 3.0 mph4.8 kmh 29.48 in998.3 mb 0.00 in0.0 mm 0.00 in/hr0.0 mm/hr 0.00 in0.0 mm
04:31 AM 28.3°F-2.1°C 23.5°F-4.7°C 82% 2.0 mph NW3.2 kmh NW 2.0 mph3.2 kmh 29.49 in998.6 mb 0.00 in0.0 mm 0.00 in/hr0.0 mm/hr 0.00 in0.0 mm
04:46 AM 27.9°F-2.3°C 23.4°F-4.8°C 83% 2.0 mph NW3.2 kmh NW 3.0 mph4.8 kmh 29.50 in999.0 mb 0.00 in0.0 mm 0.00 in/hr0.0 mm/hr 0.00 in0.0 mm
05:02 AM 27.6°F-2.4°C 23.4°F-4.8°C 84% 2.0 mph NW3.2 kmh NW 2.0 mph3.2 kmh 29.51 in999.3 mb 0.00 in0.0 mm 0.00 in/hr0.0 mm/hr 0.00 in0.0 mm
05:16 AM 27.5°F-2.5°C 23.6°F-4.7°C 85% 1.0 mph NW1.6 kmh NW 3.0 mph4.8 kmh 29.51 in999.3 mb 0.00 in0.0 mm 0.00 in/hr0.0 mm/hr 0.00 in0.0 mm
05:31 AM 27.2°F-2.7°C 23.3°F-4.8°C 85% 1.0 mph NW1.6 kmh NW 2.0 mph3.2 kmh 29.52 in999.7 mb 0.00 in0.0 mm 0.00 in/hr0.0 mm/hr 0.00 in0.0 mm
05:46 AM 27.1°F-2.7°C 23.2°F-4.9°C 85% 1.0 mph NW1.6 kmh NW 2.0 mph3.2 kmh 29.52 in999.7 mb 0.00 in0.0 mm 0.00 in/hr0.0 mm/hr 0.00 in0.0 mm
06:03 AM 26.9°F-2.8°C 23.0°F-5.0°C 85% 1.0 mph NW1.6 kmh NW 2.0 mph3.2 kmh 29.53 in1000.0 mb 0.00 in0.0 mm 0.00 in/hr0.0 mm/hr 0.00 in0.0 mm
06:15 AM 26.9°F-2.8°C 23.3°F-4.8°C 86% 2.0 mph NW3.2 kmh NW 2.0 mph3.2 kmh 29.53 in1000.0 mb 0.00 in0.0 mm 0.00 in/hr0.0 mm/hr 0.00 in0.0 mm
06:30 AM 26.7°F-2.9°C 23.1°F-4.9°C 86% 1.0 mph NW1.6 kmh NW 2.0 mph3.2 kmh 29.54 in1000.3 mb 0.00 in0.0 mm 0.00 in/hr0.0 mm/hr 0.00 in0.0 mm
06:47 AM 26.9°F-2.8°C 23.6°F-4.7°C 87% 2.0 mph NW3.2 kmh NW 3.0 mph4.8 kmh 29.54 in1000.3 mb 0.00 in0.0 mm 0.00 in/hr0.0 mm/hr 0.00 in0.0 mm
07:03 AM 27.2°F-2.7°C 23.6°F-4.7°C 86% Calm Calm 3.0 mph4.8 kmh 29.53 in1000.0 mb 0.00 in0.0 mm 0.00 in/hr0.0 mm/hr 0.00 in0.0 mm
07:15 AM 27.2°F-2.7°C 23.6°F-4.7°C 86% 1.0 mph NW1.6 kmh NW 2.0 mph3.2 kmh 29.52 in999.7 mb 0.00 in0.0 mm 0.00 in/hr0.0 mm/hr 0.00 in0.0 mm
07:31 AM 27.1°F-2.7°C 23.5°F-4.7°C 86% 1.0 mph NW1.6 kmh NW 2.0 mph3.2 kmh 29.52 in999.7 mb 0.00 in0.0 mm 0.00 in/hr0.0 mm/hr 0.00 in0.0 mm
07:46 AM 27.2°F-2.7°C 23.6°F-4.7°C 86% 2.0 mph NW3.2 kmh NW 2.0 mph3.2 kmh 29.54 in1000.3 mb 0.00 in0.0 mm 0.00 in/hr0.0 mm/hr 0.00 in0.0 mm
08:00 AM 27.1°F-2.7°C 23.5°F-4.7°C 86% 1.0 mph WNW1.6 kmh WNW 3.0 mph4.8 kmh 29.56 in1001.0 mb 0.00 in0.0 mm 0.00 in/hr0.0 mm/hr 0.00 in0.0 mm
08:16 AM 28.5°F-1.9°C 24.3°F-4.3°C 84% 1.0 mph NW1.6 kmh NW 4.0 mph6.4 kmh 29.57 in1001.4 mb 0.00 in0.0 mm 0.00 in/hr0.0 mm/hr 0.00 in0.0 mm
08:31 AM 29.3°F-1.5°C 24.5°F-4.2°C 82% 5.0 mph WSW8.0 kmh WSW 5.0 mph8.0 kmh 29.58 in1001.7 mb 0.00 in0.0 mm 0.00 in/hr0.0 mm/hr 0.00 in0.0 mm
08:46 AM 28.3°F-2.1°C 24.4°F-4.2°C 85% 3.0 mph WSW4.8 kmh WSW 5.0 mph8.0 kmh 29.58 in1001.7 mb 0.00 in0.0 mm 0.00 in/hr0.0 mm/hr 0.00 in0.0 mm
09:00 AM 30.6°F-0.8°C 25.5°F-3.6°C 81% 4.0 mph W6.4 kmh W 6.0 mph9.7 kmh 29.59 in1002.0 mb 0.00 in0.0 mm 0.00 in/hr0.0 mm/hr 0.00 in0.0 mm
09:16 AM 32.0°F0.0°C 26.5°F-3.1°C 80% 7.0 mph W11.3 kmh W 7.0 mph11.3 kmh 29.59 in1002.0 mb 0.00 in0.0 mm 0.00 in/hr0.0 mm/hr 0.00 in0.0 mm
09:30 AM 32.1°F0.1°C 26.6°F-3.0°C 80% 1.0 mph WNW1.6 kmh WNW 5.0 mph8.0 kmh 29.58 in1001.7 mb 0.00 in0.0 mm 0.00 in/hr0.0 mm/hr 0.00 in0.0 mm
09:46 AM 33.5°F0.8°C 27.4°F-2.6°C 78% 2.0 mph NW3.2 kmh NW 5.0 mph8.0 kmh 29.58 in1001.7 mb 0.00 in0.0 mm 0.00 in/hr0.0 mm/hr 0.00 in0.0 mm
10:03 AM 33.5°F0.8°C 27.1°F-2.7°C 77% 6.0 mph NW9.7 kmh NW 7.0 mph11.3 kmh 29.61 in1002.7 mb 0.00 in0.0 mm 0.00 in/hr0.0 mm/hr 0.00 in0.0 mm
10:16 AM 33.8°F1.0°C 27.1°F-2.7°C 76% 7.0 mph WSW11.3 kmh WSW 7.0 mph11.3 kmh 29.61 in1002.7 mb 0.00 in0.0 mm 0.00 in/hr0.0 mm/hr 0.00 in0.0 mm
10:31 AM 34.4°F1.3°C 27.3°F-2.6°C 75% 3.0 mph W4.8 kmh W 4.0 mph6.4 kmh 29.61 in1002.7 mb 0.00 in0.0 mm 0.00 in/hr0.0 mm/hr 0.00 in0.0 mm
10:46 AM 34.4°F1.3°C 27.6°F-2.4°C 76% 5.0 mph WSW8.0 kmh WSW 6.0 mph9.7 kmh 29.61 in1002.7 mb 0.00 in0.0 mm 0.00 in/hr0.0 mm/hr 0.00 in0.0 mm
11:03 AM 34.5°F1.4°C 27.7°F-2.4°C 76% 3.0 mph NW4.8 kmh NW 6.0 mph9.7 kmh 29.63 in1003.4 mb 0.00 in0.0 mm 0.00 in/hr0.0 mm/hr 0.00 in0.0 mm
11:16 AM 35.1°F1.7°C 28.0°F-2.2°C 75% 2.0 mph SW3.2 kmh SW 6.0 mph9.7 kmh 29.62 in1003.0 mb 0.00 in0.0 mm 0.00 in/hr0.0 mm/hr 0.00 in0.0 mm
11:31 AM 33.8°F1.0°C 28.3°F-2.1°C 80% 5.0 mph SW8.0 kmh SW 6.0 mph9.7 kmh 29.63 in1003.4 mb 0.00 in0.0 mm 0.00 in/hr0.0 mm/hr 0.00 in0.0 mm
11:46 AM 34.0°F1.1°C 28.2°F-2.1°C 79% 4.0 mph WSW6.4 kmh WSW 4.0 mph6.4 kmh 29.63 in1003.4 mb 0.00 in0.0 mm 0.00 in/hr0.0 mm/hr 0.00 in0.0 mm
12:00 PM 34.7°F1.5°C 27.9°F-2.3°C 76% 3.0 mph SW4.8 kmh SW 5.0 mph8.0 kmh 29.62 in1003.0 mb 0.00 in0.0 mm 0.00 in/hr0.0 mm/hr 0.00 in0.0 mm
12:16 PM 34.8°F1.6°C 28.0°F-2.2°C 76% 4.0 mph SW6.4 kmh SW 5.0 mph8.0 kmh 29.63 in1003.4 mb 0.00 in0.0 mm 0.00 in/hr0.0 mm/hr 0.00 in0.0 mm
12:31 PM 35.0°F1.7°C 28.2°F-2.1°C 76% 3.0 mph S4.8 kmh S 4.0 mph6.4 kmh 29.63 in1003.4 mb 0.00 in0.0 mm 0.00 in/hr0.0 mm/hr 0.00 in0.0 mm
12:46 PM 34.4°F1.3°C 29.2°F-1.6°C 81% 6.0 mph SSE9.7 kmh SSE 8.0 mph12.9 kmh 29.62 in1003.0 mb 0.00 in0.0 mm 0.00 in/hr0.0 mm/hr 0.00 in0.0 mm
01:02 PM 34.2°F1.2°C 30.5°F-0.8°C 86% 5.0 mph S8.0 kmh S 6.0 mph9.7 kmh 29.62 in1003.0 mb 0.00 in0.0 mm 0.00 in/hr0.0 mm/hr 0.00 in0.0 mm
01:16 PM 35.4°F1.9°C 32.2°F0.1°C 88% 3.0 mph SE4.8 kmh SE 3.0 mph4.8 kmh 29.61 in1002.7 mb 0.00 in0.0 mm 0.00 in/hr0.0 mm/hr 0.00 in0.0 mm
01:31 PM 35.7°F2.1°C 31.6°F-0.2°C 85% 3.0 mph SE4.8 kmh SE 4.0 mph6.4 kmh 29.61 in1002.7 mb 0.00 in0.0 mm 0.00 in/hr0.0 mm/hr 0.00 in0.0 mm
01:46 PM 34.5°F1.4°C 31.0°F-0.6°C 87% 7.0 mph SE11.3 kmh SE 10.0 mph16.1 kmh 29.62 in1003.0 mb 0.00 in0.0 mm 0.00 in/hr0.0 mm/hr 0.00 in0.0 mm
02:02 PM 33.3°F0.7°C 30.4°F-0.9°C 89% 6.0 mph SSE9.7 kmh SSE 9.0 mph14.5 kmh 29.63 in1003.4 mb 0.00 in0.0 mm 0.00 in/hr0.0 mm/hr 0.00 in0.0 mm
02:16 PM 33.2°F0.7°C 30.6°F-0.8°C 90% 8.0 mph S12.9 kmh S 8.0 mph12.9 kmh 29.64 in1003.7 mb 0.00 in0.0 mm 0.00 in/hr0.0 mm/hr 0.00 in0.0 mm
02:31 PM 33.2°F0.7°C 30.3°F-0.9°C 89% 4.0 mph S6.4 kmh S 7.0 mph11.3 kmh 29.63 in1003.4 mb 0.00 in0.0 mm 0.00 in/hr0.0 mm/hr 0.00 in0.0 mm
02:46 PM 33.3°F0.7°C 30.1°F-1.1°C 88% 6.0 mph S9.7 kmh S 9.0 mph14.5 kmh 29.64 in1003.7 mb 0.00 in0.0 mm 0.00 in/hr0.0 mm/hr 0.00 in0.0 mm
03:02 PM 33.2°F0.7°C 30.3°F-0.9°C 89% 5.0 mph S8.0 kmh S 9.0 mph14.5 kmh 29.64 in1003.7 mb 0.00 in0.0 mm 0.00 in/hr0.0 mm/hr 0.00 in0.0 mm
03:16 PM 33.1°F0.6°C 30.5°F-0.8°C 90% 6.0 mph S9.7 kmh S 9.0 mph14.5 kmh 29.64 in1003.7 mb 0.00 in0.0 mm 0.00 in/hr0.0 mm/hr 0.00 in0.0 mm
03:31 PM 33.0°F0.6°C 30.1°F-1.1°C 89% 5.0 mph S8.0 kmh S 8.0 mph12.9 kmh 29.65 in1004.1 mb 0.00 in0.0 mm 0.00 in/hr0.0 mm/hr 0.00 in0.0 mm
03:46 PM 33.3°F0.7°C 30.1°F-1.1°C 88% 6.0 mph S9.7 kmh S 6.0 mph9.7 kmh 29.65 in1004.1 mb 0.00 in0.0 mm 0.00 in/hr0.0 mm/hr 0.00 in0.0 mm
04:00 PM 33.4°F0.8°C 30.2°F-1.0°C 88% 5.0 mph S8.0 kmh S 6.0 mph9.7 kmh 29.66 in1004.4 mb 0.00 in0.0 mm 0.00 in/hr0.0 mm/hr 0.00 in0.0 mm
04:16 PM 33.2°F0.7°C 29.8°F-1.2°C 87% 4.0 mph S6.4 kmh S 6.0 mph9.7 kmh 29.65 in1004.1 mb 0.00 in0.0 mm 0.00 in/hr0.0 mm/hr 0.00 in0.0 mm
04:30 PM 33.1°F0.6°C 29.9°F-1.2°C 88% 4.0 mph SSE6.4 kmh SSE 5.0 mph8.0 kmh 29.66 in1004.4 mb 0.00 in0.0 mm 0.00 in/hr0.0 mm/hr 0.00 in0.0 mm
04:47 PM 33.1°F0.6°C 29.9°F-1.2°C 88% 3.0 mph S4.8 kmh S 5.0 mph8.0 kmh 29.66 in1004.4 mb 0.00 in0.0 mm 0.00 in/hr0.0 mm/hr 0.00 in0.0 mm
05:00 PM 33.1°F0.6°C 29.7°F-1.3°C 87% 4.0 mph S6.4 kmh S 7.0 mph11.3 kmh 29.67 in1004.7 mb 0.00 in0.0 mm 0.00 in/hr0.0 mm/hr 0.00 in0.0 mm
05:16 PM 33.0°F0.6°C 29.6°F-1.3°C 87% 4.0 mph S6.4 kmh S 7.0 mph11.3 kmh 29.67 in1004.7 mb 0.00 in0.0 mm 0.00 in/hr0.0 mm/hr 0.00 in0.0 mm
05:32 PM 33.1°F0.6°C 29.7°F-1.3°C 87% 5.0 mph S8.0 kmh S 6.0 mph9.7 kmh 29.68 in1005.1 mb 0.00 in0.0 mm 0.00 in/hr0.0 mm/hr 0.00 in0.0 mm
05:46 PM 33.0°F0.6°C 29.8°F-1.2°C 88% 3.0 mph S4.8 kmh S 4.0 mph6.4 kmh 29.68 in1005.1 mb 0.00 in0.0 mm 0.00 in/hr0.0 mm/hr 0.00 in0.0 mm
06:00 PM 32.9°F0.5°C 29.7°F-1.3°C 88% 2.0 mph S3.2 kmh S 3.0 mph4.8 kmh 29.68 in1005.1 mb 0.00 in0.0 mm 0.00 in/hr0.0 mm/hr 0.00 in0.0 mm
06:16 PM 33.1°F0.6°C 29.7°F-1.3°C 87% Calm Calm 1.0 mph1.6 kmh 29.68 in1005.1 mb 0.00 in0.0 mm 0.00 in/hr0.0 mm/hr 0.00 in0.0 mm
06:31 PM 33.3°F0.7°C 29.6°F-1.3°C 86% 1.0 mph SE1.6 kmh SE 2.0 mph3.2 kmh 29.68 in1005.1 mb 0.00 in0.0 mm 0.00 in/hr0.0 mm/hr 0.00 in0.0 mm
06:46 PM 33.0°F0.6°C 29.0°F-1.7°C 85% 1.0 mph E1.6 kmh E 5.0 mph8.0 kmh 29.67 in1004.7 mb 0.00 in0.0 mm 0.00 in/hr0.0 mm/hr 0.00 in0.0 mm
07:02 PM 32.8°F0.4°C 28.5°F-1.9°C 84% 1.0 mph E1.6 kmh E 2.0 mph3.2 kmh 29.68 in1005.1 mb 0.00 in0.0 mm 0.00 in/hr0.0 mm/hr 0.00 in0.0 mm
07:15 PM 32.3°F0.2°C 28.0°F-2.2°C 84% 1.0 mph E1.6 kmh E 2.0 mph3.2 kmh 29.68 in1005.1 mb 0.00 in0.0 mm 0.00 in/hr0.0 mm/hr 0.00 in0.0 mm
07:31 PM 31.9°F-0.1°C 27.9°F-2.3°C 85% 1.0 mph E1.6 kmh E 2.0 mph3.2 kmh 29.68 in1005.1 mb 0.00 in0.0 mm 0.00 in/hr0.0 mm/hr 0.00 in0.0 mm
07:46 PM 31.3°F-0.4°C 27.3°F-2.6°C 85% 1.0 mph E1.6 kmh E 2.0 mph3.2 kmh 29.69 in1005.4 mb 0.00 in0.0 mm 0.00 in/hr0.0 mm/hr 0.00 in0.0 mm
08:03 PM 31.1°F-0.5°C 27.4°F-2.6°C 86% 1.0 mph E1.6 kmh E 1.0 mph1.6 kmh 29.69 in1005.4 mb 0.00 in0.0 mm 0.00 in/hr0.0 mm/hr 0.00 in0.0 mm
08:16 PM 31.0°F-0.6°C 27.3°F-2.6°C 86% 1.0 mph E1.6 kmh E 2.0 mph3.2 kmh 29.69 in1005.4 mb 0.00 in0.0 mm 0.00 in/hr0.0 mm/hr 0.00 in0.0 mm
08:31 PM 31.2°F-0.4°C 27.2°F-2.7°C 85% 1.0 mph E1.6 kmh E 2.0 mph3.2 kmh 29.69 in1005.4 mb 0.00 in0.0 mm 0.00 in/hr0.0 mm/hr 0.00 in0.0 mm
08:46 PM 31.4°F-0.3°C 27.4°F-2.6°C 85% Calm Calm 2.0 mph3.2 kmh 29.69 in1005.4 mb 0.00 in0.0 mm 0.00 in/hr0.0 mm/hr 0.00 in0.0 mm
09:02 PM 31.8°F-0.1°C 27.8°F-2.3°C 85% Calm Calm 2.0 mph3.2 kmh 29.69 in1005.4 mb 0.00 in0.0 mm 0.00 in/hr0.0 mm/hr 0.00 in0.0 mm
09:15 PM 32.4°F0.2°C 28.4°F-2.0°C 85% Calm Calm 2.0 mph3.2 kmh 29.69 in1005.4 mb 0.00 in0.0 mm 0.00 in/hr0.0 mm/hr 0.00 in0.0 mm
09:31 PM 32.6°F0.3°C 28.6°F-1.9°C 85% 1.0 mph NE1.6 kmh NE 2.0 mph3.2 kmh 29.69 in1005.4 mb 0.00 in0.0 mm 0.00 in/hr0.0 mm/hr 0.00 in0.0 mm
09:46 PM 32.2°F0.1°C 28.5°F-1.9°C 86% 1.0 mph NE1.6 kmh NE 2.0 mph3.2 kmh 29.68 in1005.1 mb 0.00 in0.0 mm 0.00 in/hr0.0 mm/hr 0.00 in0.0 mm
10:02 PM 32.2°F0.1°C 28.8°F-1.8°C 87% 1.0 mph NE1.6 kmh NE 2.0 mph3.2 kmh 29.68 in1005.1 mb 0.00 in0.0 mm 0.00 in/hr0.0 mm/hr 0.00 in0.0 mm
10:15 PM 32.3°F0.2°C 28.9°F-1.7°C 87% Calm Calm 3.0 mph4.8 kmh 29.67 in1004.7 mb 0.00 in0.0 mm 0.00 in/hr0.0 mm/hr 0.00 in0.0 mm
10:31 PM 32.3°F0.2°C 29.2°F-1.6°C 88% 1.0 mph ENE1.6 kmh ENE 3.0 mph4.8 kmh 29.66 in1004.4 mb 0.00 in0.0 mm 0.00 in/hr0.0 mm/hr 0.00 in0.0 mm
10:46 PM 32.3°F0.2°C 29.2°F-1.6°C 88% 1.0 mph ENE1.6 kmh ENE 3.0 mph4.8 kmh 29.67 in1004.7 mb 0.00 in0.0 mm 0.00 in/hr0.0 mm/hr 0.00 in0.0 mm
11:02 PM 32.4°F0.2°C 29.5°F-1.4°C 89% 1.0 mph ENE1.6 kmh ENE 2.0 mph3.2 kmh 29.67 in1004.7 mb 0.00 in0.0 mm 0.00 in/hr0.0 mm/hr 0.00 in0.0 mm
11:16 PM 32.6°F0.3°C 29.7°F-1.3°C 89% 1.0 mph NE1.6 kmh NE 3.0 mph4.8 kmh 29.66 in1004.4 mb 0.00 in0.0 mm 0.00 in/hr0.0 mm/hr 0.00 in0.0 mm
11:31 PM 32.8°F0.4°C 29.6°F-1.3°C 88% 1.0 mph NE1.6 kmh NE 2.0 mph3.2 kmh 29.66 in1004.4 mb 0.00 in0.0 mm 0.00 in/hr0.0 mm/hr 0.00 in0.0 mm
11:46 PM 32.7°F0.4°C 29.6°F-1.3°C 88% 1.0 mph NE1.6 kmh NE 2.0 mph3.2 kmh 29.65 in1004.1 mb 0.00 in0.0 mm 0.00 in/hr0.0 mm/hr 0.00 in0.0 mm